Time;durP1;ratioP1;P1;durP2;ratioP2;P2;SDS_P1;SDS_P2;PMS_P1;PMS_P2;Temp;Humidity;BMP_temperature;BMP_pressure;BME280_temperature;BME280_humidity;BME280_pressure;Samples;Min_cycle;Max_cycle;Signal;HPM_P1;HPM_P2
2024/01/27 00:01:12;;;;;;;33.50;4.05;;;;;;;;;;5056890;28;20515;-85
2024/01/27 00:03:38;;;;;;;25.65;3.85;;;;;;;;;;5075008;28;20067;-85
2024/01/27 00:06:05;;;;;;;31.63;4.07;;;;;;;;;;5074985;28;20513;-85
2024/01/27 00:08:31;;;;;;;31.65;4.65;;;;;;;;;;5049206;28;20047;-85
2024/01/27 00:10:57;;;;;;;29.13;4.35;;;;;;;;;;5056064;28;20066;-85
2024/01/27 00:13:23;;;;;;;35.10;4.35;;;;;;;;;;5058498;28;20104;-85
2024/01/27 00:15:49;;;;;;;21.35;3.53;;;;;;;;;;5045515;28;20055;-85
2024/01/27 00:18:18;;;;;;;30.42;3.78;;;;;;;;;;5080405;28;20043;-85
2024/01/27 00:20:44;;;;;;;33.08;4.63;;;;;;;;;;5059605;28;20510;-85
2024/01/27 00:23:10;;;;;;;35.88;4.15;;;;;;;;;;5042204;28;20090;-84
2024/01/27 00:25:36;;;;;;;28.33;4.70;;;;;;;;;;5038822;28;20043;-84
2024/01/27 00:28:02;;;;;;;29.63;4.30;;;;;;;;;;5054900;28;20130;-85
2024/01/27 00:30:28;;;;;;;37.53;4.38;;;;;;;;;;5077619;28;20031;-84
2024/01/27 00:32:55;;;;;;;40.40;3.58;;;;;;;;;;5048283;28;20614;-85
2024/01/27 00:35:21;;;;;;;30.85;3.70;;;;;;;;;;5039484;28;20047;-85
2024/01/27 00:37:47;;;;;;;23.00;4.35;;;;;;;;;;5044908;28;20390;-85
2024/01/27 00:40:13;;;;;;;35.92;4.40;;;;;;;;;;5056632;28;20065;-84
2024/01/27 00:42:39;;;;;;;30.70;4.15;;;;;;;;;;5035298;28;20058;-85
2024/01/27 00:45:05;;;;;;;40.58;3.85;;;;;;;;;;5055843;28;20518;-84
2024/01/27 00:47:31;;;;;;;24.10;3.20;;;;;;;;;;5073462;28;20509;-85
2024/01/27 00:49:58;;;;;;;34.78;5.30;;;;;;;;;;5052778;28;20036;-85
2024/01/27 00:52:24;;;;;;;23.30;3.83;;;;;;;;;;5067990;28;20051;-85
2024/01/27 00:54:50;;;;;;;36.60;4.35;;;;;;;;;;5054900;28;20040;-85
2024/01/27 00:57:16;;;;;;;29.45;4.65;;;;;;;;;;5039502;28;20036;-84
2024/01/27 00:59:42;;;;;;;29.05;4.10;;;;;;;;;;5066353;28;20445;-85
2024/01/27 01:02:08;;;;;;;32.60;5.22;;;;;;;;;;5054351;28;20060;-85
2024/01/27 01:04:34;;;;;;;24.75;4.15;;;;;;;;;;5053937;28;20039;-84
2024/01/27 01:07:00;;;;;;;29.83;3.38;;;;;;;;;;5055665;28;20177;-85
2024/01/27 01:09:26;;;;;;;29.95;3.50;;;;;;;;;;5051965;28;20440;-85
2024/01/27 01:11:53;;;;;;;28.70;4.22;;;;;;;;;;5070584;28;20035;-86
2024/01/27 01:14:19;;;;;;;29.15;3.65;;;;;;;;;;5038898;28;20403;-85
2024/01/27 01:16:45;;;;;;;24.70;4.00;;;;;;;;;;5048422;28;20040;-85
2024/01/27 01:19:11;;;;;;;33.30;3.60;;;;;;;;;;5055258;28;20150;-85
2024/01/27 01:21:38;;;;;;;21.70;4.13;;;;;;;;;;5060085;28;20044;-85
2024/01/27 01:24:04;;;;;;;26.23;3.88;;;;;;;;;;5042265;28;20043;-84
2024/01/27 01:26:30;;;;;;;32.13;4.70;;;;;;;;;;5072183;28;20098;-84
2024/01/27 01:28:56;;;;;;;28.30;3.92;;;;;;;;;;5060584;28;20036;-85
2024/01/27 01:31:22;;;;;;;32.13;4.90;;;;;;;;;;5072646;28;20036;-85
2024/01/27 01:33:48;;;;;;;34.15;4.40;;;;;;;;;;5058629;28;20108;-84
2024/01/27 01:36:14;;;;;;;35.13;4.97;;;;;;;;;;5076535;28;20040;-85
2024/01/27 01:38:41;;;;;;;34.25;5.25;;;;;;;;;;5058547;28;20079;-85
2024/01/27 01:41:07;;;;;;;24.92;3.58;;;;;;;;;;5083898;28;20529;-84
2024/01/27 01:43:33;;;;;;;23.10;4.38;;;;;;;;;;5075413;28;20036;-85
2024/01/27 01:45:59;;;;;;;24.98;3.90;;;;;;;;;;5062113;28;20037;-85
2024/01/27 01:48:25;;;;;;;18.48;3.45;;;;;;;;;;5053330;28;20089;-84
2024/01/27 01:50:51;;;;;;;25.58;4.53;;;;;;;;;;5077246;28;20051;-84
2024/01/27 01:53:17;;;;;;;40.17;4.40;;;;;;;;;;5056326;28;20063;-84
2024/01/27 01:55:43;;;;;;;24.98;4.15;;;;;;;;;;5059517;28;20048;-83
2024/01/27 01:58:10;;;;;;;32.53;4.95;;;;;;;;;;5074751;28;20040;-84
2024/01/27 02:00:36;;;;;;;26.70;3.50;;;;;;;;;;5037971;28;20209;-85
2024/01/27 02:03:02;;;;;;;32.65;4.82;;;;;;;;;;5057798;28;20076;-85
2024/01/27 02:05:28;;;;;;;29.17;4.53;;;;;;;;;;5054795;28;20050;-83
2024/01/27 02:07:56;;;;;;;32.72;5.95;;;;;;;;;;5057956;28;20040;-84
2024/01/27 02:10:22;;;;;;;27.88;3.30;;;;;;;;;;5074673;28;20044;-85
2024/01/27 02:12:48;;;;;;;24.85;3.40;;;;;;;;;;5077547;28;20045;-84
2024/01/27 02:15:14;;;;;;;27.95;5.53;;;;;;;;;;5039737;28;20044;-84
2024/01/27 02:17:40;;;;;;;29.42;4.43;;;;;;;;;;5074376;28;20067;-84
2024/01/27 02:20:07;;;;;;;25.20;3.65;;;;;;;;;;5074253;28;20044;-84
2024/01/27 02:22:34;;;;;;;16.73;3.80;;;;;;;;;;5095260;28;20063;-85
2024/01/27 02:25:00;;;;;;;29.98;3.88;;;;;;;;;;5074769;28;20121;-84
2024/01/27 02:27:26;;;;;;;31.73;4.45;;;;;;;;;;5055281;28;20040;-85
2024/01/27 02:29:52;;;;;;;32.83;3.72;;;;;;;;;;5055362;28;20032;-85
2024/01/27 02:32:18;;;;;;;25.25;4.20;;;;;;;;;;5074253;28;20040;-85
2024/01/27 02:34:44;;;;;;;32.58;4.95;;;;;;;;;;5040958;28;20080;-85
2024/01/27 02:37:10;;;;;;;38.22;5.75;;;;;;;;;;5074188;28;20045;-85
2024/01/27 02:39:36;;;;;;;33.88;3.92;;;;;;;;;;5054917;28;20059;-83
2024/01/27 02:42:03;;;;;;;31.52;4.18;;;;;;;;;;5070578;28;20147;-85
2024/01/27 02:44:29;;;;;;;28.15;4.00;;;;;;;;;;5071301;28;20047;-85
2024/01/27 02:46:55;;;;;;;32.97;4.28;;;;;;;;;;5072787;28;20044;-85
2024/01/27 02:49:21;;;;;;;24.45;4.43;;;;;;;;;;5050288;28;20036;-85
2024/01/27 02:51:47;;;;;;;26.77;3.22;;;;;;;;;;5073367;28;20085;-85
2024/01/27 02:54:14;;;;;;;31.30;4.47;;;;;;;;;;5065283;28;20039;-84
2024/01/27 02:56:40;;;;;;;35.45;5.07;;;;;;;;;;5072731;28;20035;-83
2024/01/27 02:59:06;;;;;;;25.15;3.75;;;;;;;;;;5073570;28;20529;-85
2024/01/27 03:01:32;;;;;;;27.85;4.00;;;;;;;;;;5040411;28;20095;-86
2024/01/27 03:03:58;;;;;;;30.50;3.72;;;;;;;;;;5071558;28;20134;-85
2024/01/27 03:06:24;;;;;;;34.67;3.42;;;;;;;;;;5058399;28;20534;-84
2024/01/27 03:08:50;;;;;;;21.27;3.50;;;;;;;;;;5038599;28;20135;-85
2024/01/27 03:11:16;;;;;;;25.95;3.70;;;;;;;;;;5074608;28;20036;-85
2024/01/27 03:13:45;;;;;;;21.75;3.60;;;;;;;;;;5055678;28;20051;-84
2024/01/27 03:16:11;;;;;;;26.92;3.30;;;;;;;;;;5057615;28;20372;-85
2024/01/27 03:18:37;;;;;;;30.73;3.50;;;;;;;;;;5034720;28;20039;-85
2024/01/27 03:21:04;;;;;;;20.98;3.35;;;;;;;;;;5052800;28;20092;-85
2024/01/27 03:23:30;;;;;;;18.75;2.80;;;;;;;;;;5054280;28;20894;-84
2024/01/27 03:25:56;;;;;;;21.15;3.08;;;;;;;;;;5057371;28;20043;-85
2024/01/27 03:28:22;;;;;;;35.35;3.53;;;;;;;;;;5073593;28;20036;-86
2024/01/27 03:30:48;;;;;;;31.05;4.45;;;;;;;;;;5062410;28;20439;-85
2024/01/27 03:33:14;;;;;;;27.02;3.83;;;;;;;;;;5057484;28;20035;-84
2024/01/27 03:35:41;;;;;;;24.60;3.22;;;;;;;;;;5088275;28;20048;-85
2024/01/27 03:38:07;;;;;;;29.52;4.63;;;;;;;;;;5056169;28;20302;-85
2024/01/27 03:40:33;;;;;;;12.80;2.92;;;;;;;;;;5075498;28;20040;-85
2024/01/27 03:42:59;;;;;;;17.52;3.05;;;;;;;;;;5069797;28;20089;-84
2024/01/27 03:45:25;;;;;;;28.95;3.60;;;;;;;;;;5086777;28;20040;-83
2024/01/27 03:47:51;;;;;;;25.77;3.55;;;;;;;;;;5051800;28;20070;-83
2024/01/27 03:50:17;;;;;;;23.00;4.15;;;;;;;;;;5036513;28;20040;-83
2024/01/27 03:52:43;;;;;;;24.45;3.45;;;;;;;;;;5075562;28;20040;-83
2024/01/27 03:55:10;;;;;;;27.08;4.00;;;;;;;;;;5070998;28;20058;-83
2024/01/27 03:57:36;;;;;;;24.30;3.17;;;;;;;;;;5072342;28;20048;-83
2024/01/27 04:00:04;;;;;;;22.05;3.78;;;;;;;;;;5053085;28;20063;-84
2024/01/27 04:02:30;;;;;;;24.83;3.72;;;;;;;;;;5051960;28;20037;-83
2024/01/27 04:04:56;;;;;;;20.08;3.00;;;;;;;;;;5069677;28;20453;-84
2024/01/27 04:07:22;;;;;;;26.55;3.08;;;;;;;;;;5064964;28;20414;-83
2024/01/27 04:09:48;;;;;;;24.30;3.65;;;;;;;;;;5051593;28;20421;-84
2024/01/27 04:12:14;;;;;;;24.27;2.95;;;;;;;;;;5033431;28;20043;-83
2024/01/27 04:14:40;;;;;;;20.25;3.17;;;;;;;;;;5055466;28;20147;-83
2024/01/27 04:17:06;;;;;;;14.60;2.83;;;;;;;;;;5073181;28;20139;-83
2024/01/27 04:19:32;;;;;;;23.30;3.90;;;;;;;;;;5071981;28;20051;-83
2024/01/27 04:21:58;;;;;;;18.50;3.40;;;;;;;;;;5091229;28;20054;-83
2024/01/27 04:24:24;;;;;;;25.25;3.63;;;;;;;;;;5052385;28;20175;-83
2024/01/27 04:26:50;;;;;;;18.08;1.92;;;;;;;;;;5038450;28;20048;-83
2024/01/27 04:29:16;;;;;;;40.70;5.90;;;;;;;;;;5073256;28;20126;-82
2024/01/27 04:31:43;;;;;;;17.13;3.92;;;;;;;;;;5055604;28;20035;-85
2024/01/27 04:34:09;;;;;;;28.48;3.35;;;;;;;;;;5041125;28;20063;-83
2024/01/27 04:36:35;;;;;;;30.63;4.07;;;;;;;;;;5068795;28;20047;-82
2024/01/27 04:39:01;;;;;;;32.58;3.92;;;;;;;;;;5037502;28;20036;-82
2024/01/27 04:41:27;;;;;;;28.67;4.82;;;;;;;;;;5036649;28;20044;-81
2024/01/27 04:43:55;;;;;;;24.17;3.83;;;;;;;;;;5059411;28;20471;-82
2024/01/27 04:46:21;;;;;;;25.15;3.20;;;;;;;;;;5073935;28;20044;-81
2024/01/27 04:48:47;;;;;;;18.17;3.33;;;;;;;;;;5070375;28;20093;-83
2024/01/27 04:51:13;;;;;;;25.33;3.47;;;;;;;;;;5090738;28;20123;-83
2024/01/27 04:53:39;;;;;;;27.23;3.40;;;;;;;;;;5070618;28;20024;-83
2024/01/27 04:56:09;;;;;;;16.13;2.63;;;;;;;;;;5050527;28;20048;-83
2024/01/27 04:58:35;;;;;;;31.40;3.80;;;;;;;;;;5054115;28;20302;-83
2024/01/27 05:01:04;;;;;;;27.88;3.70;;;;;;;;;;5056251;28;20558;-83
2024/01/27 05:03:31;;;;;;;24.45;3.63;;;;;;;;;;5055736;28;20460;-82
2024/01/27 05:05:57;;;;;;;24.85;3.13;;;;;;;;;;5077181;28;20035;-82
2024/01/27 05:08:23;;;;;;;21.35;2.72;;;;;;;;;;5058040;28;20032;-84
2024/01/27 05:10:49;;;;;;;13.70;2.97;;;;;;;;;;5066314;28;20046;-82
2024/01/27 05:13:15;;;;;;;25.73;4.00;;;;;;;;;;5058526;28;20127;-83
2024/01/27 05:15:41;;;;;;;16.30;2.80;;;;;;;;;;5057744;28;20058;-82
2024/01/27 05:18:07;;;;;;;18.85;2.83;;;;;;;;;;5056770;28;20132;-82
2024/01/27 05:20:33;;;;;;;29.20;3.25;;;;;;;;;;5056067;28;20032;-82
2024/01/27 05:22:59;;;;;;;32.63;3.15;;;;;;;;;;5076589;28;20507;-82
2024/01/27 05:25:25;;;;;;;25.48;3.88;;;;;;;;;;5071866;28;20036;-82
2024/01/27 05:27:51;;;;;;;18.88;2.88;;;;;;;;;;5057936;28;20044;-82
2024/01/27 05:30:18;;;;;;;30.45;3.38;;;;;;;;;;5075885;28;20058;-82
2024/01/27 05:32:44;;;;;;;26.13;4.03;;;;;;;;;;5055950;28;20031;-82
2024/01/27 05:35:10;;;;;;;22.88;2.95;;;;;;;;;;5073732;28;20062;-82
2024/01/27 05:37:36;;;;;;;27.85;3.60;;;;;;;;;;5059189;28;20047;-82
2024/01/27 05:40:03;;;;;;;23.67;3.53;;;;;;;;;;5041360;28;20488;-82
2024/01/27 05:42:29;;;;;;;26.52;3.67;;;;;;;;;;5057746;28;20044;-82
2024/01/27 05:44:55;;;;;;;26.45;3.60;;;;;;;;;;5075119;28;20039;-83
2024/01/27 05:47:21;;;;;;;18.90;3.78;;;;;;;;;;5052930;28;20120;-82
2024/01/27 05:49:47;;;;;;;23.52;3.63;;;;;;;;;;5062691;28;20040;-82
2024/01/27 05:52:13;;;;;;;25.23;5.10;;;;;;;;;;5042640;28;20122;-82
2024/01/27 05:54:43;;;;;;;24.70;2.85;;;;;;;;;;5070811;28;20388;-83
2024/01/27 05:57:09;;;;;;;19.60;3.50;;;;;;;;;;5068760;28;20500;-82
2024/01/27 05:59:35;;;;;;;20.35;3.05;;;;;;;;;;5053081;28;20069;-83
2024/01/27 06:02:01;;;;;;;27.10;3.45;;;;;;;;;;5041597;28;20068;-82
2024/01/27 06:04:27;;;;;;;34.20;4.47;;;;;;;;;;5038872;28;20036;-81
2024/01/27 06:06:53;;;;;;;17.88;3.00;;;;;;;;;;5056221;28;20039;-82
2024/01/27 06:09:19;;;;;;;29.67;3.97;;;;;;;;;;5071903;28;20399;-81
2024/01/27 06:11:45;;;;;;;26.88;3.72;;;;;;;;;;5037671;28;20117;-81
2024/01/27 06:14:12;;;;;;;23.98;4.25;;;;;;;;;;5055356;28;20036;-83
2024/01/27 06:16:38;;;;;;;25.65;3.30;;;;;;;;;;5069146;28;20502;-83
2024/01/27 06:19:04;;;;;;;24.13;3.30;;;;;;;;;;5047626;28;20440;-83
2024/01/27 06:21:30;;;;;;;21.80;3.30;;;;;;;;;;5055688;28;20483;-82
2024/01/27 06:23:56;;;;;;;15.63;3.20;;;;;;;;;;5076036;28;20035;-83
2024/01/27 06:26:22;;;;;;;13.25;3.13;;;;;;;;;;5053610;28;20036;-82
2024/01/27 06:28:48;;;;;;;26.17;3.80;;;;;;;;;;5075212;28;20046;-82
2024/01/27 06:31:14;;;;;;;21.30;2.88;;;;;;;;;;5039131;28;20039;-82
2024/01/27 06:33:40;;;;;;;22.95;3.05;;;;;;;;;;5033528;28;20061;-82
2024/01/27 06:36:09;;;;;;;26.13;3.63;;;;;;;;;;5073532;28;20434;-82
2024/01/27 06:38:35;;;;;;;20.30;3.40;;;;;;;;;;5067737;28;20563;-81
2024/01/27 06:41:01;;;;;;;21.77;3.67;;;;;;;;;;5064345;28;20036;-82
2024/01/27 06:43:27;;;;;;;21.42;4.55;;;;;;;;;;5072976;28;20974;-83
2024/01/27 06:45:54;;;;;;;19.58;3.83;;;;;;;;;;5068710;28;20098;-82
2024/01/27 06:48:21;;;;;;;22.65;5.63;;;;;;;;;;5055188;28;20037;-83
2024/01/27 06:50:47;;;;;;;17.02;3.28;;;;;;;;;;5070984;28;20092;-83
2024/01/27 06:53:13;;;;;;;20.75;2.85;;;;;;;;;;5048061;28;20043;-83
2024/01/27 06:55:39;;;;;;;20.27;4.57;;;;;;;;;;5035461;28;20036;-83
2024/01/27 06:58:05;;;;;;;21.73;5.20;;;;;;;;;;5069345;28;20083;-83
2024/01/27 07:00:31;;;;;;;23.65;4.13;;;;;;;;;;5071520;28;20039;-84
2024/01/27 07:02:58;;;;;;;21.52;4.28;;;;;;;;;;5071639;28;20403;-83
2024/01/27 07:05:25;;;;;;;21.60;3.50;;;;;;;;;;5072537;28;20376;-82
2024/01/27 07:07:51;;;;;;;21.17;3.58;;;;;;;;;;5051756;28;20036;-83
2024/01/27 07:10:17;;;;;;;19.60;3.50;;;;;;;;;;5071990;28;20047;-83
2024/01/27 07:12:44;;;;;;;12.50;2.83;;;;;;;;;;5068070;28;20048;-80
2024/01/27 07:15:10;;;;;;;17.95;3.00;;;;;;;;;;5040270;28;20042;-83
2024/01/27 07:17:36;;;;;;;30.10;3.50;;;;;;;;;;5072270;28;20043;-82
2024/01/27 07:20:02;;;;;;;24.08;3.50;;;;;;;;;;5055688;28;20467;-82
2024/01/27 07:22:28;;;;;;;23.73;3.75;;;;;;;;;;5055983;28;20033;-82
2024/01/27 07:24:56;;;;;;;18.98;3.22;;;;;;;;;;5057868;28;20083;-82
2024/01/27 07:27:23;;;;;;;24.65;4.22;;;;;;;;;;5086917;28;20040;-82
2024/01/27 07:29:49;;;;;;;26.60;4.40;;;;;;;;;;5075156;28;20043;-81
2024/01/27 07:32:15;;;;;;;28.13;3.75;;;;;;;;;;5071535;28;20078;-80
2024/01/27 07:34:42;;;;;;;27.88;4.13;;;;;;;;;;5055729;28;20831;-83
2024/01/27 07:37:08;;;;;;;30.75;3.75;;;;;;;;;;5072933;28;20036;-82
2024/01/27 07:39:34;;;;;;;22.23;3.78;;;;;;;;;;5071267;28;20585;-81
2024/01/27 07:42:00;;;;;;;21.60;4.13;;;;;;;;;;5073071;28;20050;-82
2024/01/27 07:44:27;;;;;;;19.85;3.65;;;;;;;;;;5071551;28;20040;-82
2024/01/27 07:46:53;;;;;;;34.10;5.55;;;;;;;;;;5073344;28;20714;-83
2024/01/27 07:49:20;;;;;;;20.65;4.35;;;;;;;;;;5059081;28;20060;-83
2024/01/27 07:51:46;;;;;;;21.88;2.90;;;;;;;;;;5067829;28;20040;-82
2024/01/27 07:54:12;;;;;;;27.77;3.53;;;;;;;;;;5054884;28;20042;-82
2024/01/27 07:56:38;;;;;;;18.35;3.50;;;;;;;;;;5053313;28;20040;-82
2024/01/27 07:59:04;;;;;;;20.95;3.40;;;;;;;;;;5068320;28;20040;-82
2024/01/27 08:01:30;;;;;;;16.73;3.22;;;;;;;;;;5070016;28;20345;-83
2024/01/27 08:03:56;;;;;;;21.58;4.38;;;;;;;;;;5051957;28;20063;-83
2024/01/27 08:06:30;;;;;;;15.32;3.17;;;;;;;;;;5070988;28;20036;-83
2024/01/27 08:08:56;;;;;;;21.93;3.50;;;;;;;;;;5047667;28;20043;-82
2024/01/27 08:11:22;;;;;;;24.88;3.88;;;;;;;;;;5052966;28;20434;-84
2024/01/27 08:13:48;;;;;;;21.50;4.40;;;;;;;;;;5070249;28;20122;-83
2024/01/27 08:16:14;;;;;;;16.33;3.85;;;;;;;;;;5050893;28;20172;-83
2024/01/27 08:18:44;;;;;;;23.65;4.95;;;;;;;;;;5071039;28;20040;-87
2024/01/27 08:21:11;;;;;;;19.17;4.15;;;;;;;;;;5056639;28;20039;-82
2024/01/27 08:23:37;;;;;;;29.52;4.78;;;;;;;;;;5052820;28;20033;-81
2024/01/27 08:26:03;;;;;;;25.10;4.63;;;;;;;;;;5053142;28;20075;-83
2024/01/27 08:28:29;;;;;;;26.92;4.13;;;;;;;;;;5039738;28;20135;-84
2024/01/27 08:30:55;;;;;;;23.50;4.07;;;;;;;;;;5073214;28;20527;-82
2024/01/27 08:33:22;;;;;;;19.02;3.25;;;;;;;;;;5071530;28;20059;-83
2024/01/27 08:35:48;;;;;;;19.90;3.55;;;;;;;;;;5067328;28;20055;-83
2024/01/27 08:38:14;;;;;;;18.27;4.13;;;;;;;;;;5053286;28;20043;-84
2024/01/27 08:40:40;;;;;;;26.80;4.03;;;;;;;;;;5034201;28;20064;-83
2024/01/27 08:43:06;;;;;;;27.17;4.10;;;;;;;;;;5052626;28;20051;-83
2024/01/27 08:45:33;;;;;;;28.77;5.50;;;;;;;;;;5057311;28;20492;-82
2024/01/27 08:47:59;;;;;;;19.73;3.90;;;;;;;;;;5055451;28;20119;-83
2024/01/27 08:50:25;;;;;;;21.05;3.60;;;;;;;;;;5071297;28;20035;-82
2024/01/27 08:52:51;;;;;;;23.67;3.95;;;;;;;;;;5060230;28;20036;-83
2024/01/27 08:55:18;;;;;;;30.02;4.65;;;;;;;;;;5059775;28;20039;-83
2024/01/27 08:57:45;;;;;;;31.85;3.92;;;;;;;;;;5064338;28;20128;-83
2024/01/27 09:00:13;;;;;;;22.10;4.75;;;;;;;;;;5073758;28;20040;-82
2024/01/27 09:02:39;;;;;;;23.30;3.97;;;;;;;;;;5057123;28;20039;-83
2024/01/27 09:05:05;;;;;;;29.77;4.93;;;;;;;;;;5072327;28;20041;-82
2024/01/27 09:07:31;;;;;;;19.55;4.45;;;;;;;;;;5059223;28;20052;-82
2024/01/27 09:09:58;;;;;;;16.92;3.53;;;;;;;;;;5038459;28;20115;-83
2024/01/27 09:12:24;;;;;;;21.90;3.78;;;;;;;;;;5048101;28;20039;-83
2024/01/27 09:14:50;;;;;;;25.95;5.07;;;;;;;;;;5068697;28;20036;-83
2024/01/27 09:17:16;;;;;;;25.58;4.90;;;;;;;;;;5054717;28;20126;-84
2024/01/27 09:19:43;;;;;;;20.40;3.30;;;;;;;;;;5058335;28;20031;-84
2024/01/27 09:22:09;;;;;;;17.25;4.38;;;;;;;;;;5055197;28;20036;-83
2024/01/27 09:24:35;;;;;;;18.27;5.15;;;;;;;;;;5069471;28;20409;-83
2024/01/27 09:27:01;;;;;;;25.70;4.97;;;;;;;;;;5069603;28;20055;-83
2024/01/27 09:29:28;;;;;;;18.65;3.47;;;;;;;;;;5056708;28;20503;-83
2024/01/27 09:31:54;;;;;;;15.55;3.60;;;;;;;;;;5048965;28;20530;-83
2024/01/27 09:34:20;;;;;;;19.15;4.07;;;;;;;;;;5069952;28;20052;-83
2024/01/27 09:36:46;;;;;;;19.88;4.55;;;;;;;;;;5070025;28;20082;-82
2024/01/27 09:39:12;;;;;;;23.13;5.30;;;;;;;;;;5044907;28;20093;-79
2024/01/27 09:41:38;;;;;;;12.68;3.47;;;;;;;;;;5048044;28;20130;-81
2024/01/27 09:44:05;;;;;;;26.88;3.80;;;;;;;;;;5043204;28;20036;-81
2024/01/27 09:46:32;;;;;;;17.60;4.30;;;;;;;;;;5070798;28;20052;-81
2024/01/27 09:48:58;;;;;;;17.88;4.32;;;;;;;;;;5051614;28;20043;-81
2024/01/27 09:51:25;;;;;;;43.53;6.88;;;;;;;;;;5065529;28;20040;-81
2024/01/27 09:53:51;;;;;;;33.17;5.88;;;;;;;;;;5075195;28;20035;-81
2024/01/27 09:56:17;;;;;;;26.50;6.10;;;;;;;;;;5051666;28;20055;-82
2024/01/27 09:58:44;;;;;;;30.67;5.07;;;;;;;;;;5056860;28;20530;-81
2024/01/27 10:01:10;;;;;;;24.95;6.70;;;;;;;;;;5074990;28;20043;-79
2024/01/27 10:03:38;;;;;;;20.95;4.57;;;;;;;;;;5077721;28;20039;-82
2024/01/27 10:06:07;;;;;;;30.85;5.38;;;;;;;;;;5058126;28;20059;-82
2024/01/27 10:08:33;;;;;;;24.35;4.95;;;;;;;;;;5077909;28;20032;-82
2024/01/27 10:10:59;;;;;;;24.23;4.72;;;;;;;;;;5055592;28;20089;-82
2024/01/27 10:13:28;;;;;;;27.80;6.40;;;;;;;;;;5073527;28;20028;-82
2024/01/27 10:16:04;;;;;;;29.25;6.20;;;;;;;;;;5068583;28;20514;-83
2024/01/27 10:18:30;;;;;;;24.17;6.25;;;;;;;;;;5055205;28;20036;-82
2024/01/27 10:20:56;;;;;;;23.02;5.35;;;;;;;;;;5077242;28;20399;-82
2024/01/27 10:23:23;;;;;;;24.52;6.53;;;;;;;;;;5035983;28;20551;-83
2024/01/27 10:25:49;;;;;;;24.67;6.68;;;;;;;;;;5029414;28;20048;-83
2024/01/27 10:28:15;;;;;;;29.70;7.00;;;;;;;;;;5056023;28;20894;-82
2024/01/27 10:30:42;;;;;;;28.77;6.72;;;;;;;;;;5066219;28;20044;-82
2024/01/27 10:33:13;;;;;;;17.02;6.07;;;;;;;;;;5055256;28;20047;-83
2024/01/27 10:35:39;;;;;;;23.55;6.30;;;;;;;;;;5073225;28;20920;-82
2024/01/27 10:38:05;;;;;;;19.70;5.95;;;;;;;;;;5078929;28;20048;-82
2024/01/27 10:40:33;;;;;;;21.52;7.35;;;;;;;;;;5053016;28;20453;-84
2024/01/27 10:43:03;;;;;;;25.52;6.80;;;;;;;;;;5070880;28;20071;-84
2024/01/27 10:45:40;;;;;;;19.45;5.05;;;;;;;;;;5070195;28;20032;-84
2024/01/27 10:48:07;;;;;;;23.20;5.80;;;;;;;;;;5071405;28;20040;-84
2024/01/27 10:50:39;;;;;;;19.90;5.47;;;;;;;;;;5067461;28;20508;-85
2024/01/27 10:53:09;;;;;;;26.85;7.25;;;;;;;;;;5050944;28;20051;-85
2024/01/27 10:55:35;;;;;;;23.90;5.78;;;;;;;;;;5054938;28;20043;-87
2024/01/27 10:58:02;;;;;;;24.77;5.40;;;;;;;;;;5071989;28;20047;-82
2024/01/27 11:00:30;;;;;;;16.10;4.65;;;;;;;;;;5048411;28;20126;-85
2024/01/27 11:02:59;;;;;;;22.13;4.43;;;;;;;;;;5068101;28;20479;-81
2024/01/27 11:05:25;;;;;;;24.77;5.18;;;;;;;;;;5049696;28;20063;-82
2024/01/27 11:07:51;;;;;;;31.73;5.50;;;;;;;;;;5052136;28;20033;-83
2024/01/27 11:10:18;;;;;;;32.55;5.03;;;;;;;;;;5055393;28;20058;-83
2024/01/27 11:12:44;;;;;;;22.88;4.75;;;;;;;;;;5055410;28;20101;-83
2024/01/27 11:15:10;;;;;;;19.60;3.90;;;;;;;;;;5069418;28;20162;-86
2024/01/27 11:17:44;;;;;;;19.00;4.45;;;;;;;;;;5071424;28;20726;-85
2024/01/27 11:20:11;;;;;;;25.83;4.68;;;;;;;;;;5050360;28;20036;-83
2024/01/27 11:22:37;;;;;;;18.70;4.40;;;;;;;;;;5051289;28;20065;-84
2024/01/27 11:25:13;;;;;;;24.95;4.82;;;;;;;;;;5053314;28;20075;-83
2024/01/27 11:27:39;;;;;;;21.08;5.65;;;;;;;;;;5051246;28;20035;-84
2024/01/27 11:30:06;;;;;;;20.48;5.15;;;;;;;;;;5049784;28;20066;-83
2024/01/27 11:32:33;;;;;;;22.90;4.80;;;;;;;;;;5054080;28;20082;-84
2024/01/27 11:35:02;;;;;;;14.73;3.88;;;;;;;;;;5055310;28;20147;-83
2024/01/27 11:37:31;;;;;;;21.08;4.55;;;;;;;;;;5053657;28;20062;-84
2024/01/27 11:40:07;;;;;;;13.10;4.40;;;;;;;;;;5072819;28;20043;-85
2024/01/27 11:42:33;;;;;;;19.40;3.90;;;;;;;;;;5069134;28;20515;-85
2024/01/27 11:44:59;;;;;;;23.45;4.80;;;;;;;;;;5039846;28;20047;-85
2024/01/27 11:47:26;;;;;;;22.40;5.10;;;;;;;;;;5074930;28;20035;-84
2024/01/27 11:49:53;;;;;;;19.52;4.10;;;;;;;;;;5068436;28;20044;-84
2024/01/27 11:52:19;;;;;;;20.42;5.57;;;;;;;;;;5064665;28;20043;-81
2024/01/27 11:54:46;;;;;;;24.83;5.13;;;;;;;;;;5050521;28;20059;-85
2024/01/27 11:57:12;;;;;;;19.70;4.15;;;;;;;;;;5077829;28;20044;-83
2024/01/27 11:59:38;;;;;;;23.08;4.55;;;;;;;;;;5055283;28;20146;-82
2024/01/27 12:02:04;;;;;;;22.52;5.10;;;;;;;;;;5061878;28;20380;-83
2024/01/27 12:04:30;;;;;;;22.55;4.13;;;;;;;;;;5062261;28;20414;-83
2024/01/27 12:06:56;;;;;;;23.65;6.07;;;;;;;;;;5051595;28;20039;-83
2024/01/27 12:09:22;;;;;;;19.35;3.70;;;;;;;;;;5070531;28;20071;-84
2024/01/27 12:11:48;;;;;;;18.95;4.47;;;;;;;;;;5075980;28;20153;-84
2024/01/27 12:14:14;;;;;;;19.25;4.82;;;;;;;;;;5067326;28;20043;-84
2024/01/27 12:16:41;;;;;;;28.15;4.85;;;;;;;;;;5040609;28;20047;-84
2024/01/27 12:19:10;;;;;;;17.83;4.22;;;;;;;;;;5040375;28;20278;-84
2024/01/27 12:21:36;;;;;;;22.23;4.60;;;;;;;;;;5071922;28;20047;-83
2024/01/27 12:24:03;;;;;;;19.42;4.07;;;;;;;;;;5045320;28;20406;-83
2024/01/27 12:26:30;;;;;;;19.13;4.93;;;;;;;;;;5066827;28;20487;-83
2024/01/27 12:28:57;;;;;;;12.32;3.10;;;;;;;;;;5053810;28;20471;-84
2024/01/27 12:31:25;;;;;;;21.05;4.82;;;;;;;;;;5068470;28;20085;-81
2024/01/27 12:33:51;;;;;;;20.77;4.80;;;;;;;;;;5049860;28;20056;-83
2024/01/27 12:36:21;;;;;;;18.75;4.13;;;;;;;;;;5070982;28;20118;-81
2024/01/27 12:39:00;;;;;;;19.90;4.20;;;;;;;;;;5051970;28;20043;-82
2024/01/27 12:41:27;;;;;;;20.17;4.13;;;;;;;;;;5064851;28;20142;-83
2024/01/27 12:43:56;;;;;;;15.18;3.50;;;;;;;;;;5052444;28;20123;-82
2024/01/27 12:46:23;;;;;;;19.88;4.18;;;;;;;;;;5069982;28;20028;-82
2024/01/27 12:48:49;;;;;;;19.40;3.00;;;;;;;;;;5053075;28;20043;-82
2024/01/27 12:51:15;;;;;;;10.18;2.65;;;;;;;;;;5051064;28;20432;-84
2024/01/27 12:53:43;;;;;;;14.55;2.60;;;;;;;;;;5037728;28;20126;-84
2024/01/27 12:56:13;;;;;;;12.55;2.95;;;;;;;;;;5055000;28;20071;-82
2024/01/27 12:58:40;;;;;;;15.32;3.28;;;;;;;;;;5067960;28;20036;-83
2024/01/27 13:01:06;;;;;;;13.45;3.50;;;;;;;;;;5066780;28;20059;-83
2024/01/27 13:03:32;;;;;;;14.02;2.97;;;;;;;;;;5052430;28;20044;-83
2024/01/27 13:05:58;;;;;;;17.15;3.35;;;;;;;;;;5069410;28;20490;-83
2024/01/27 13:08:25;;;;;;;10.82;2.75;;;;;;;;;;5052970;28;20044;-83
2024/01/27 13:10:51;;;;;;;21.88;3.80;;;;;;;;;;5070439;28;20088;-81
2024/01/27 13:13:17;;;;;;;21.88;2.80;;;;;;;;;;5053731;28;20032;-82
2024/01/27 13:15:43;;;;;;;15.23;2.70;;;;;;;;;;5051952;28;20038;-82
2024/01/27 13:18:10;;;;;;;14.85;2.70;;;;;;;;;;5051610;28;20036;-81
2024/01/27 13:20:36;;;;;;;20.13;3.35;;;;;;;;;;5051179;28;20119;-83
2024/01/27 13:23:02;;;;;;;20.83;3.70;;;;;;;;;;5055728;28;20036;-83
2024/01/27 13:25:28;;;;;;;19.73;3.88;;;;;;;;;;5064230;28;20028;-83
2024/01/27 13:27:55;;;;;;;14.98;3.28;;;;;;;;;;5036809;28;20123;-83
2024/01/27 13:30:21;;;;;;;25.25;3.50;;;;;;;;;;5055524;28;20055;-82
2024/01/27 13:32:49;;;;;;;22.88;3.55;;;;;;;;;;5058714;28;20440;-83
2024/01/27 13:35:15;;;;;;;18.13;3.67;;;;;;;;;;5045178;28;20052;-83
2024/01/27 13:37:41;;;;;;;21.65;3.33;;;;;;;;;;5074045;28;20047;-83
2024/01/27 13:40:09;;;;;;;19.92;3.03;;;;;;;;;;5057560;28;20348;-82
2024/01/27 13:42:35;;;;;;;14.55;3.35;;;;;;;;;;5059580;28;20135;-81
2024/01/27 13:45:02;;;;;;;27.95;3.47;;;;;;;;;;5037837;28;20047;-81
2024/01/27 13:47:28;;;;;;;18.15;3.13;;;;;;;;;;5039181;28;20093;-81
2024/01/27 13:49:54;;;;;;;21.13;2.75;;;;;;;;;;5058451;28;20646;-81
2024/01/27 13:52:20;;;;;;;18.58;3.00;;;;;;;;;;5059451;28;20036;-82
2024/01/27 13:54:46;;;;;;;17.20;3.30;;;;;;;;;;5064137;28;20047;-82
2024/01/27 13:57:12;;;;;;;16.90;4.22;;;;;;;;;;5057726;28;20039;-81
2024/01/27 13:59:38;;;;;;;20.67;3.60;;;;;;;;;;5041065;28;20040;-82
2024/01/27 14:02:05;;;;;;;17.85;3.17;;;;;;;;;;5054656;28;20438;-82
2024/01/27 14:04:31;;;;;;;15.98;2.83;;;;;;;;;;5073310;28;20044;-84
2024/01/27 14:06:57;;;;;;;16.08;3.30;;;;;;;;;;5070825;28;20093;-83
2024/01/27 14:09:23;;;;;;;25.05;3.92;;;;;;;;;;5043034;28;20060;-83
2024/01/27 14:11:49;;;;;;;16.08;3.83;;;;;;;;;;5057480;28;20036;-82
2024/01/27 14:14:16;;;;;;;21.50;4.13;;;;;;;;;;5044933;28;20040;-83
2024/01/27 14:16:47;;;;;;;19.90;3.25;;;;;;;;;;5055726;28;20105;-81
2024/01/27 14:19:13;;;;;;;18.17;3.45;;;;;;;;;;5074026;28;20448;-81
2024/01/27 14:21:39;;;;;;;20.63;4.47;;;;;;;;;;5057398;28;20439;-81
2024/01/27 14:24:08;;;;;;;14.63;2.92;;;;;;;;;;5057565;28;20502;-81
2024/01/27 14:26:35;;;;;;;17.02;3.45;;;;;;;;;;5053498;28;20402;-81